createdAt,value
2023-04-19T00:00:14.554Z,6.57
2023-04-19T00:02:42.758Z,6.53
2023-04-19T00:05:12.002Z,6.13
2023-04-19T00:07:38.552Z,6.17
2023-04-19T00:10:05.551Z,6.37
2023-04-19T00:12:31.950Z,6.40
2023-04-19T00:14:58.692Z,6.30
2023-04-19T00:17:25.118Z,6.87
2023-04-19T00:19:52.179Z,5.90
2023-04-19T00:22:18.646Z,6.37
2023-04-19T00:24:45.071Z,6.47
2023-04-19T00:27:11.444Z,7.13
2023-04-19T00:29:37.896Z,7.00
2023-04-19T00:32:05.951Z,6.10
2023-04-19T00:34:32.472Z,6.80
2023-04-19T00:36:58.997Z,6.70
2023-04-19T00:39:25.662Z,7.10
2023-04-19T00:41:53.073Z,7.60
2023-04-19T00:44:19.565Z,7.27
2023-04-19T00:46:46.071Z,6.57
2023-04-19T00:49:12.816Z,7.43
2023-04-19T00:51:39.296Z,6.93
2023-04-19T00:54:07.752Z,6.97
2023-04-19T00:56:34.584Z,6.80
2023-04-19T00:59:01.335Z,6.67
2023-04-19T01:01:28.805Z,6.63
2023-04-19T01:03:55.736Z,6.77
2023-04-19T01:06:22.324Z,7.00
2023-04-19T01:08:48.774Z,6.63
2023-04-19T01:11:15.140Z,7.10
2023-04-19T01:13:41.528Z,7.17
2023-04-19T01:16:08.057Z,7.17
2023-04-19T01:18:37.504Z,7.70
2023-04-19T01:21:04.225Z,7.07
2023-04-19T01:23:30.988Z,6.77
2023-04-19T01:25:57.711Z,7.47
2023-04-19T01:28:24.184Z,7.53
2023-04-19T01:30:54.790Z,7.27
2023-04-19T01:33:22.026Z,7.50
2023-04-19T01:35:49.057Z,7.10
2023-04-19T01:38:16.791Z,7.47
2023-04-19T01:40:43.648Z,7.20
2023-04-19T01:43:12.655Z,7.17
2023-04-19T01:45:39.272Z,6.63
2023-04-19T01:48:06.161Z,7.33
2023-04-19T01:50:32.949Z,6.90
2023-04-19T01:53:00.336Z,7.03
2023-04-19T01:55:26.885Z,7.27
2023-04-19T01:57:54.823Z,6.60
2023-04-19T02:00:21.832Z,7.27
2023-04-19T02:02:48.766Z,7.57
2023-04-19T02:05:15.736Z,7.00
2023-04-19T02:07:42.167Z,7.50
2023-04-19T02:10:11.996Z,7.20
2023-04-19T02:12:38.416Z,6.80
2023-04-19T02:15:05.377Z,7.23
2023-04-19T02:17:32.436Z,7.53
2023-04-19T02:19:58.908Z,6.83
2023-04-19T02:22:25.386Z,7.30
2023-04-19T02:24:51.889Z,7.60
2023-04-19T02:27:18.487Z,7.03
2023-04-19T02:29:45.273Z,7.07
2023-04-19T02:32:14.676Z,7.73
2023-04-19T02:34:41.192Z,7.20
2023-04-19T02:37:07.607Z,7.67
2023-04-19T02:39:34.337Z,6.60
2023-04-19T02:42:01.395Z,7.33
2023-04-19T02:44:27.804Z,7.03
2023-04-19T02:46:54.835Z,7.10
2023-04-19T02:49:21.641Z,7.50
2023-04-19T02:51:48.046Z,7.63
2023-04-19T02:54:14.833Z,7.63
2023-04-19T02:56:41.537Z,7.80
2023-04-19T02:59:09.712Z,7.00
2023-04-19T03:01:36.311Z,6.47
2023-04-19T03:04:03.126Z,6.50
2023-04-19T03:06:29.512Z,7.07
2023-04-19T03:08:55.958Z,7.43
2023-04-19T03:11:22.411Z,6.70
2023-04-19T03:13:48.894Z,7.60
2023-04-19T03:16:15.373Z,7.70
2023-04-19T03:18:41.798Z,6.73
2023-04-19T03:21:09.493Z,7.57
2023-04-19T03:23:35.926Z,7.17
2023-04-19T03:26:02.456Z,7.60
2023-04-19T03:28:28.824Z,7.30
2023-04-19T03:30:55.290Z,7.10
2023-04-19T03:33:21.705Z,7.43
2023-04-19T03:35:48.118Z,8.07
2023-04-19T03:38:14.543Z,7.50
2023-04-19T03:40:40.970Z,7.70
2023-04-19T03:43:07.340Z,8.13
2023-04-19T03:45:33.732Z,7.00
2023-04-19T03:48:02.631Z,6.90
2023-04-19T03:50:29.472Z,7.83
2023-04-19T03:52:55.915Z,7.97
2023-04-19T03:55:22.371Z,8.60
2023-04-19T03:57:48.910Z,12.13
2023-04-19T04:00:16.583Z,10.77
2023-04-19T04:02:43.157Z,9.07
2023-04-19T04:05:09.816Z,10.23
2023-04-19T04:07:36.384Z,8.93
2023-04-19T04:10:02.844Z,8.90
2023-04-19T04:12:29.236Z,7.90
2023-04-19T04:14:55.835Z,8.47
2023-04-19T04:17:24.126Z,8.27
2023-04-19T04:19:50.608Z,7.50
2023-04-19T04:22:17.416Z,6.93
2023-04-19T04:24:44.141Z,8.03
2023-04-19T04:27:11.212Z,8.50
2023-04-19T04:29:38.578Z,7.17
2023-04-19T04:32:08.611Z,8.07
2023-04-19T04:34:36.625Z,8.10
2023-04-19T04:37:04.021Z,7.60
2023-04-19T04:39:30.622Z,7.50
2023-04-19T04:41:59.654Z,8.07
2023-04-19T04:44:27.768Z,8.10
2023-04-19T04:46:54.479Z,7.53
2023-04-19T04:49:20.915Z,8.20
2023-04-19T04:51:47.453Z,7.70
2023-04-19T04:54:14.047Z,7.60
2023-04-19T04:56:40.741Z,8.03
2023-04-19T04:59:07.896Z,8.40
2023-04-19T05:01:34.523Z,7.83
2023-04-19T05:04:01.243Z,7.83
2023-04-19T05:06:27.773Z,8.17
2023-04-19T05:08:54.323Z,8.17
2023-04-19T05:11:20.927Z,8.87
2023-04-19T05:13:47.465Z,8.10
2023-04-19T05:16:13.977Z,7.80
2023-04-19T05:18:40.659Z,7.07
2023-04-19T05:21:10.370Z,7.73
2023-04-19T05:23:38.026Z,8.50
2023-04-19T05:26:04.661Z,8.07
2023-04-19T05:28:31.171Z,6.07
2023-04-19T05:30:57.935Z,7.47
2023-04-19T05:33:24.353Z,7.00
2023-04-19T05:35:51.840Z,7.17
2023-04-19T05:38:18.762Z,7.27
2023-04-19T05:40:45.353Z,6.97
2023-04-19T05:43:11.814Z,7.30
2023-04-19T05:45:38.369Z,7.53
2023-04-19T05:48:05.414Z,8.50
2023-04-19T05:50:32.010Z,8.00
2023-04-19T05:52:58.854Z,7.77
2023-04-19T05:55:25.317Z,8.17
2023-04-19T05:57:51.721Z,7.63
2023-04-19T06:00:19.055Z,7.83
2023-04-19T06:02:45.734Z,6.07
2023-04-19T06:05:12.683Z,6.93
2023-04-19T06:07:43.263Z,7.33
2023-04-19T06:10:15.928Z,7.07
2023-04-19T06:12:42.308Z,7.37
2023-04-19T06:15:09.274Z,7.27
2023-04-19T06:17:35.855Z,7.23
2023-04-19T06:20:02.286Z,5.93
2023-04-19T06:22:28.709Z,6.70
2023-04-19T06:24:55.318Z,7.17
2023-04-19T06:27:21.748Z,6.53
2023-04-19T06:29:50.491Z,6.57
2023-04-19T06:32:17.577Z,7.50
2023-04-19T06:34:44.038Z,6.87
2023-04-19T06:37:10.429Z,7.70
2023-04-19T06:39:36.811Z,7.20
2023-04-19T06:42:03.695Z,6.13
2023-04-19T06:44:30.161Z,5.93
2023-04-19T06:46:56.652Z,6.00
2023-04-19T06:49:23.057Z,7.70
2023-04-19T06:51:49.697Z,8.03
2023-04-19T06:54:16.414Z,6.10
2023-04-19T06:56:45.921Z,6.67
2023-04-19T06:59:17.566Z,7.37
2023-04-19T07:01:44.565Z,6.53
2023-04-19T07:04:12.854Z,6.40
2023-04-19T07:06:39.964Z,6.90
2023-04-19T07:09:07.537Z,7.03
2023-04-19T07:11:34.797Z,6.70
2023-04-19T07:14:01.335Z,6.47
2023-04-19T07:16:28.367Z,6.90
2023-04-19T07:18:54.977Z,6.97
2023-04-19T07:21:21.463Z,6.70
2023-04-19T07:23:47.932Z,7.57
2023-04-19T07:26:14.996Z,7.13
2023-04-19T07:28:42.347Z,7.50
2023-04-19T07:31:14.198Z,6.87
2023-04-19T07:33:40.557Z,7.37
2023-04-19T07:36:07.410Z,6.30
2023-04-19T07:38:33.763Z,6.60
2023-04-19T07:41:00.264Z,7.10
2023-04-19T07:43:26.961Z,6.30
2023-04-19T07:45:53.505Z,6.13
2023-04-19T07:48:19.986Z,5.80
2023-04-19T07:50:46.404Z,5.83
2023-04-19T07:53:12.876Z,5.73
2023-04-19T07:55:39.343Z,6.03
2023-04-19T07:58:05.799Z,6.27
2023-04-19T08:00:34.726Z,5.57
2023-04-19T08:03:01.287Z,5.77
2023-04-19T08:05:28.177Z,5.57
2023-04-19T08:07:54.707Z,5.40
2023-04-19T08:10:22.418Z,5.57
2023-04-19T08:13:04.288Z,5.13
2023-04-19T08:18:01.001Z,5.23
2023-04-19T08:20:27.588Z,5.30
2023-04-19T08:22:54.249Z,5.77
2023-04-19T08:25:21.289Z,6.10
2023-04-19T08:27:47.729Z,5.37
2023-04-19T08:30:14.286Z,6.20
2023-04-19T08:32:40.838Z,5.37
2023-04-19T08:35:08.315Z,4.77
2023-04-19T08:37:34.774Z,5.73
2023-04-19T08:40:01.538Z,5.27
2023-04-19T08:42:35.469Z,5.63
2023-04-19T08:47:44.905Z,4.87
2023-04-19T08:50:31.022Z,4.53
2023-04-19T08:53:11.998Z,5.03
2023-04-19T08:56:06.716Z,5.20
2023-04-19T08:58:54.814Z,5.33
2023-04-19T09:04:03.302Z,5.80
2023-04-19T09:13:54.913Z,5.73
2023-04-19T09:16:37.235Z,6.37
2023-04-19T09:22:38.739Z,3.13
2023-04-19T09:28:54.815Z,5.77
2023-04-19T09:32:03.163Z,5.20
2023-04-19T09:35:21.926Z,5.53
2023-04-19T09:45:31.209Z,6.13
2023-04-19T09:57:22.787Z,5.00
2023-04-19T09:59:49.181Z,4.93
2023-04-19T10:02:16.292Z,5.87
2023-04-19T10:05:02.575Z,5.13
2023-04-19T10:07:31.602Z,4.83
2023-04-19T10:10:11.914Z,5.67
2023-04-19T10:15:23.371Z,5.90
2023-04-19T10:17:50.259Z,6.23
2023-04-19T10:20:27.990Z,5.40
2023-04-19T10:22:54.595Z,5.53
2023-04-19T10:25:28.439Z,5.60
2023-04-19T10:27:54.910Z,5.60
2023-04-19T10:30:23.226Z,5.73
2023-04-19T10:32:56.146Z,5.73
2023-04-19T10:35:25.407Z,5.70
2023-04-19T10:38:12.836Z,5.20
2023-04-19T10:40:55.916Z,5.60
2023-04-19T10:43:23.718Z,5.73
2023-04-19T10:45:50.213Z,6.20
2023-04-19T10:48:33.370Z,6.03
2023-04-19T10:51:05.760Z,5.80
2023-04-19T10:53:50.721Z,4.97
2023-04-19T10:56:19.539Z,5.50
2023-04-19T10:59:01.226Z,5.67
2023-04-19T11:01:44.780Z,5.30
2023-04-19T11:04:40.508Z,4.93
2023-04-19T11:07:07.361Z,5.50
2023-04-19T11:09:45.057Z,5.43
2023-04-19T11:12:17.481Z,5.40
2023-04-19T11:14:52.692Z,5.13
2023-04-19T11:17:27.990Z,6.10
2023-04-19T11:19:57.710Z,5.40
2023-04-19T11:22:26.988Z,5.90
2023-04-19T11:24:53.657Z,5.63
2023-04-19T11:27:21.354Z,6.30
2023-04-19T11:32:15.549Z,5.60
2023-04-19T11:34:41.994Z,5.20
2023-04-19T11:37:10.847Z,6.17
2023-04-19T11:39:45.637Z,5.63
2023-04-19T11:42:20.592Z,7.20
2023-04-19T11:44:51.879Z,7.13
2023-04-19T11:47:19.757Z,7.93
2023-04-19T11:49:46.261Z,7.00
2023-04-19T11:52:12.698Z,7.37
2023-04-19T11:54:40.037Z,8.30
2023-04-19T11:57:09.322Z,8.67
2023-04-19T11:59:36.463Z,8.33
2023-04-19T12:02:12.926Z,8.60
2023-04-19T12:04:40.197Z,9.07
2023-04-19T12:07:07.325Z,9.20
2023-04-19T12:09:36.038Z,8.77
2023-04-19T12:12:03.111Z,7.67
2023-04-19T12:14:30.478Z,8.27
2023-04-19T12:17:11.874Z,8.73
2023-04-19T12:19:44.442Z,9.53
2023-04-19T12:22:13.793Z,9.23
2023-04-19T12:24:40.959Z,9.37
2023-04-19T12:27:08.286Z,9.50
2023-04-19T12:29:35.572Z,9.70
2023-04-19T12:32:02.772Z,8.30
2023-04-19T12:34:29.444Z,8.83
2023-04-19T12:36:57.306Z,8.37
2023-04-19T12:39:26.715Z,9.30
2023-04-19T12:41:55.501Z,9.67
2023-04-19T12:44:23.579Z,8.50
2023-04-19T12:46:50.738Z,7.93
2023-04-19T12:49:22.364Z,8.07
2023-04-19T12:51:48.955Z,8.03
2023-04-19T12:54:16.032Z,7.90
2023-04-19T12:56:42.537Z,7.60
2023-04-19T12:59:09.023Z,7.23
2023-04-19T13:01:36.816Z,7.77
2023-04-19T13:04:04.066Z,7.00
2023-04-19T13:06:31.287Z,7.70
2023-04-19T13:09:01.059Z,5.87
2023-04-19T13:11:28.433Z,7.23
2023-04-19T13:13:54.853Z,6.53
2023-04-19T13:16:22.488Z,6.87
2023-04-19T13:18:49.390Z,6.70
2023-04-19T13:21:15.788Z,6.80
2023-04-19T13:23:43.875Z,7.30
2023-04-19T13:26:10.673Z,6.20
2023-04-19T13:28:37.133Z,6.67
2023-04-19T13:31:04.831Z,5.57
2023-04-19T13:33:31.337Z,6.47
2023-04-19T13:35:57.933Z,6.60
2023-04-19T13:38:25.010Z,6.03
2023-04-19T13:40:51.468Z,5.67
2023-04-19T13:43:17.968Z,5.23
2023-04-19T13:45:44.516Z,6.77
2023-04-19T13:48:11.003Z,5.87
2023-04-19T13:50:37.578Z,5.73
2023-04-19T13:53:04.045Z,6.00
2023-04-19T13:55:30.527Z,6.37
2023-04-19T13:57:57.045Z,5.83
2023-04-19T14:00:24.000Z,5.10
2023-04-19T14:02:52.441Z,5.03
2023-04-19T14:05:19.365Z,5.73
2023-04-19T14:07:46.080Z,5.27
2023-04-19T14:10:12.571Z,5.27
2023-04-19T14:12:38.995Z,5.43
2023-04-19T14:15:05.825Z,5.30
2023-04-19T14:17:32.623Z,5.00
2023-04-19T14:19:59.081Z,5.03
2023-04-19T14:22:25.889Z,5.40
2023-04-19T14:24:52.358Z,4.93
2023-04-19T14:27:19.254Z,5.43
2023-04-19T14:29:45.664Z,5.33
2023-04-19T14:32:25.059Z,4.53
2023-04-19T14:34:53.498Z,5.50
2023-04-19T14:37:21.851Z,4.97
2023-04-19T14:39:48.266Z,5.07
2023-04-19T14:42:14.720Z,4.47
2023-04-19T14:44:41.243Z,5.70
2023-04-19T14:47:07.830Z,5.93
2023-04-19T14:49:34.254Z,5.23
2023-04-19T14:52:00.963Z,5.43
2023-04-19T14:54:27.664Z,5.70
2023-04-19T14:56:54.083Z,5.33
2023-04-19T14:59:20.559Z,5.23
2023-04-19T15:01:47.367Z,10.20
2023-04-19T15:04:14.054Z,5.47
2023-04-19T15:06:41.169Z,6.10
2023-04-19T15:09:07.747Z,6.13
2023-04-19T15:11:34.263Z,6.23
2023-04-19T15:14:00.767Z,6.00
2023-04-19T15:16:27.316Z,5.90
2023-04-19T15:18:53.943Z,5.43
2023-04-19T15:21:24.158Z,5.67
2023-04-19T15:23:51.185Z,5.53
2023-04-19T15:26:17.623Z,5.30
2023-04-19T15:28:44.199Z,5.80
2023-04-19T15:31:10.935Z,5.17
2023-04-19T15:33:37.851Z,5.30
2023-04-19T15:36:04.863Z,5.63
2023-04-19T15:38:32.252Z,5.77
2023-04-19T15:41:00.256Z,5.60
2023-04-19T15:43:26.841Z,5.40
2023-04-19T15:45:53.439Z,5.93
2023-04-19T15:48:20.811Z,5.20
2023-04-19T15:50:47.400Z,5.37
2023-04-19T15:53:14.238Z,5.30
2023-04-19T15:55:41.494Z,5.23
2023-04-19T15:58:08.240Z,5.13
2023-04-19T16:00:34.767Z,5.63
2023-04-19T16:03:01.413Z,5.73
2023-04-19T16:05:28.129Z,5.63
2023-04-19T16:08:02.632Z,5.60
2023-04-19T16:10:29.183Z,5.68
2023-04-19T16:12:55.744Z,5.83
2023-04-19T16:15:22.243Z,5.57
2023-04-19T16:17:48.659Z,5.67
2023-04-19T16:20:15.198Z,4.90
2023-04-19T16:22:41.627Z,5.10
2023-04-19T16:25:10.169Z,6.13
2023-04-19T16:27:36.846Z,5.87
2023-04-19T16:30:03.897Z,6.00
2023-04-19T16:32:30.363Z,6.60
2023-04-19T16:34:56.969Z,6.00
2023-04-19T16:37:23.379Z,6.27
2023-04-19T16:39:50.202Z,6.10
2023-04-19T16:42:16.641Z,5.37
2023-04-19T16:44:43.106Z,5.77
2023-04-19T16:47:09.581Z,5.30
2023-04-19T16:49:36.092Z,6.30
2023-04-19T16:52:02.634Z,6.30
2023-04-19T16:54:29.119Z,5.87
2023-04-19T16:56:55.640Z,5.60
2023-04-19T16:59:22.108Z,5.70
2023-04-19T17:01:48.575Z,5.77
2023-04-19T17:04:15.240Z,6.53
2023-04-19T17:06:41.872Z,6.23
2023-04-19T17:09:08.358Z,6.03
2023-04-19T17:11:34.805Z,3.90
2023-04-19T17:14:01.478Z,1.70
2023-04-19T17:16:28.086Z,1.30
2023-04-19T17:18:56.044Z,1.33
2023-04-19T17:21:22.536Z,0.87
2023-04-19T17:23:49.133Z,1.17
2023-04-19T17:26:18.414Z,1.20
2023-04-19T17:28:44.811Z,1.00
2023-04-19T17:31:11.369Z,1.10
2023-04-19T17:33:38.859Z,1.40
2023-04-19T17:36:06.362Z,1.20
2023-04-19T17:38:32.977Z,1.40
2023-04-19T17:40:59.641Z,1.23
2023-04-19T17:43:26.268Z,1.20
2023-04-19T17:45:52.716Z,1.10
2023-04-19T17:48:19.160Z,1.50
2023-04-19T17:50:45.562Z,1.40
2023-04-19T17:53:12.140Z,1.30
2023-04-19T17:55:40.209Z,1.20
2023-04-19T17:58:06.684Z,1.60
2023-04-19T18:00:33.085Z,1.47
2023-04-19T18:03:01.320Z,1.10
2023-04-19T18:05:27.936Z,1.20
2023-04-19T18:07:54.830Z,1.40
2023-04-19T18:10:23.236Z,1.33
2023-04-19T18:12:49.706Z,1.60
2023-04-19T18:15:16.255Z,1.17
2023-04-19T18:17:42.670Z,1.50
2023-04-19T18:20:11.298Z,1.30
2023-04-19T18:22:39.646Z,1.90
2023-04-19T18:25:08.245Z,1.70
2023-04-19T18:27:34.678Z,1.60
2023-04-19T18:30:03.810Z,1.70
2023-04-19T18:32:31.922Z,1.37
2023-04-19T18:34:58.458Z,1.50
2023-04-19T18:37:24.834Z,1.80
2023-04-19T18:39:51.282Z,2.00
2023-04-19T18:42:17.681Z,1.80
2023-04-19T18:44:53.679Z,2.40
2023-04-19T18:47:21.388Z,1.70
2023-04-19T18:50:02.626Z,1.83
2023-04-19T18:52:31.378Z,1.73
2023-04-19T18:54:58.403Z,1.63
2023-04-19T18:57:27.498Z,1.87
2023-04-19T18:59:56.494Z,1.73
2023-04-19T19:02:23.327Z,1.60
2023-04-19T19:04:57.016Z,1.67
2023-04-19T19:07:35.435Z,1.50
2023-04-19T19:10:17.093Z,2.30
2023-04-19T19:12:47.363Z,2.30
2023-04-19T19:15:14.007Z,2.03
2023-04-19T19:17:40.845Z,2.63
2023-04-19T19:20:08.170Z,2.00
2023-04-19T19:22:34.861Z,2.50
2023-04-19T19:25:01.768Z,2.10
2023-04-19T19:27:28.469Z,1.70
2023-04-19T19:29:55.198Z,2.00
2023-04-19T19:32:22.034Z,1.70
2023-04-19T19:37:19.058Z,1.70
2023-04-19T19:39:46.364Z,2.07
2023-04-19T19:42:16.324Z,1.97
2023-04-19T19:44:43.204Z,2.70
2023-04-19T19:47:11.368Z,2.10
2023-04-19T19:52:07.596Z,2.87
2023-04-19T19:54:34.193Z,2.27
2023-04-19T19:57:52.917Z,2.40
2023-04-19T19:59:54.378Z,2.47
2023-04-19T20:02:22.186Z,1.93
2023-04-19T20:04:49.497Z,2.07
2023-04-19T20:09:45.652Z,1.87
2023-04-19T20:12:16.271Z,2.50
2023-04-19T20:14:42.710Z,1.87
2023-04-19T20:17:09.182Z,3.40
2023-04-19T20:19:35.858Z,2.07
2023-04-19T20:22:02.484Z,1.97
2023-04-19T20:24:29.805Z,2.10
2023-04-19T20:26:57.441Z,1.73
2023-04-19T20:29:24.661Z,1.60
2023-04-19T20:31:51.158Z,1.80
2023-04-19T20:34:17.668Z,1.60
2023-04-19T20:36:46.860Z,1.90
2023-04-19T20:39:13.824Z,1.90
2023-04-19T20:41:40.481Z,2.50
2023-04-19T20:44:06.926Z,2.10
2023-04-19T20:46:34.761Z,2.20
2023-04-19T20:49:01.296Z,2.27
2023-04-19T20:51:27.722Z,2.20
2023-04-19T20:53:54.088Z,2.10
2023-04-19T20:56:20.696Z,2.03
2023-04-19T20:58:47.095Z,2.53
2023-04-19T21:01:17.135Z,2.90
2023-04-19T21:03:44.534Z,2.80
2023-04-19T21:08:37.946Z,2.77
2023-04-19T21:11:04.418Z,2.20
2023-04-19T21:13:32.319Z,2.30
2023-04-19T21:15:58.959Z,2.30
2023-04-19T21:18:27.705Z,2.17
2023-04-19T21:20:54.079Z,2.40
2023-04-19T21:23:20.618Z,2.23
2023-04-19T21:25:47.104Z,2.00
2023-04-19T21:28:13.598Z,1.93
2023-04-19T21:30:43.031Z,2.27
2023-04-19T21:33:09.974Z,2.20
2023-04-19T21:35:36.403Z,2.33
2023-04-19T21:38:02.834Z,2.20
2023-04-19T21:40:29.282Z,2.40
2023-04-19T21:42:57.133Z,2.03
2023-04-19T21:45:23.662Z,2.10
2023-04-19T21:47:50.948Z,2.20
2023-04-19T21:50:17.481Z,2.30
2023-04-19T21:52:44.974Z,2.23
2023-04-19T21:55:11.436Z,2.13
2023-04-19T21:57:38.476Z,2.27
2023-04-19T22:00:11.111Z,2.57
2023-04-19T22:02:37.660Z,2.53
2023-04-19T22:05:07.022Z,3.20
2023-04-19T22:07:33.496Z,2.67
2023-04-19T22:10:03.041Z,2.70
2023-04-19T22:12:29.445Z,2.40
2023-04-19T22:14:56.053Z,2.20
2023-04-19T22:17:23.001Z,1.90
2023-04-19T22:19:49.588Z,2.63
2023-04-19T22:22:16.051Z,2.37
2023-04-19T22:24:56.262Z,2.30
2023-04-19T22:27:24.756Z,2.17
2023-04-19T22:29:51.248Z,2.43
2023-04-19T22:32:17.939Z,2.10
2023-04-19T22:34:44.617Z,2.37
2023-04-19T22:37:11.073Z,2.50
2023-04-19T22:39:37.522Z,2.33
2023-04-19T22:42:04.122Z,2.30
2023-04-19T22:44:30.594Z,2.33
2023-04-19T22:46:58.153Z,2.60
2023-04-19T22:49:24.659Z,2.40
2023-04-19T22:51:51.174Z,2.63
2023-04-19T22:54:17.727Z,2.23
2023-04-19T22:56:44.211Z,2.80
2023-04-19T22:59:10.812Z,2.30
2023-04-19T23:01:37.266Z,2.23
2023-04-19T23:04:03.735Z,2.23
2023-04-19T23:06:30.417Z,2.77
2023-04-19T23:08:56.845Z,2.13
2023-04-19T23:11:25.124Z,2.63
2023-04-19T23:13:54.851Z,2.60
2023-04-19T23:16:25.254Z,2.40
2023-04-19T23:18:52.108Z,2.13
2023-04-19T23:21:18.740Z,2.23
2023-04-19T23:23:45.403Z,2.33
2023-04-19T23:26:11.990Z,2.67
2023-04-19T23:28:38.461Z,3.50
2023-04-19T23:31:05.026Z,4.27
2023-04-19T23:33:31.534Z,3.03
2023-04-19T23:35:57.886Z,2.80
2023-04-19T23:38:24.363Z,2.70
2023-04-19T23:40:50.799Z,5.53
2023-04-19T23:45:45.048Z,4.77
2023-04-19T23:48:11.534Z,3.83
2023-04-19T23:50:37.956Z,3.23
2023-04-19T23:53:05.506Z,3.60
2023-04-19T23:55:31.992Z,3.37
2023-04-19T23:57:58.517Z,3.10
